Moby Aki — IBVV — position and weather

sailwx.info

Track history (hours):
 
Tides and Currents Weather Stations Pressure Air Temp Water Temp Dewpoint Dewpoint Depression Visibility Wind Speed Wind Dir Waves Ship Positions

Moby Aki

Last reported at 2015-Apr-19 15:24 UTC. Time now 2015-Apr-19 15:44 UTC.
Position N 40°55' E 009°31'.

Length 175 m; draft 6.9 m.

Type: Passenger vessel. MMSI: 247132400.

Date/timePositionNaut miles runAvg speedWind from/ knotsBaromVisibWave heightAir tempDewpointWater temp
2015-Apr-19 15:24N 40°55' E 009°31'0 0.0
2015-Apr-19 14:23N 40°55' E 009°31'0 0.0
2015-Apr-19 13:32N 40°55' E 009°31'0 0.0
2015-Apr-19 12:29N 40°55' E 009°31'0 0.0
2015-Apr-19 11:29N 40°55' E 009°31'0 0.0
2015-Apr-19 10:29N 40°55' E 009°31'0 0.0
2015-Apr-19 09:25N 40°55' E 009°31'0 0.0
2015-Apr-19 08:22N 40°55' E 009°31'0 0.0
2015-Apr-19 07:19N 40°55' E 009°31'0 0.0
2015-Apr-19 06:31N 40°55' E 009°31'0 0.0
2015-Apr-19 05:31N 40°55' E 009°31'12817.2
2015-Apr-18 22:06N 43°01' E 010°03'1019.4
2015-Apr-18 21:33N 43°11' E 010°06'1919.3
2015-Apr-18 20:33N 43°30' E 010°12'5 5.2
2015-Apr-18 19:33N 43°33' E 010°18'0 0.0
2015-Apr-18 18:33N 43°33' E 010°18'0 0.0
2015-Apr-18 17:32N 43°33' E 010°18'0 0.0
2015-Apr-18 16:33N 43°33' E 010°18'0 0.0
2015-Apr-18 15:30N 43°33' E 010°18'0 0.0
2015-Apr-18 14:33N 43°33' E 010°18'0 0.0
2015-Apr-18 13:33N 43°33' E 010°18'0 0.0
2015-Apr-18 12:33N 43°33' E 010°18'0 0.0
2015-Apr-18 11:33N 43°33' E 010°18'0 0.0
2015-Apr-18 10:33N 43°33' E 010°18'0 0.0
2015-Apr-18 09:33N 43°33' E 010°18'0 0.0
2015-Apr-18 08:33N 43°33' E 010°18'0 0.0
2015-Apr-18 07:33N 43°33' E 010°18'0 0.0
2015-Apr-18 06:32N 43°33' E 010°18'0 0.0
2015-Apr-18 05:32N 43°33' E 010°18'5 4.7
2015-Apr-18 04:33N 43°30' E 010°14'1918.7
2015-Apr-18 03:33N 43°11' E 010°07'13819.4
2015-Apr-17 20:27N 40°56' E 009°36'3 3.4
2015-Apr-17 19:32N 40°55' E 009°31'0 0.0
2015-Apr-17 18:23N 40°55' E 009°31'0 0.0
2015-Apr-17 17:32N 40°55' E 009°31'0 0.0
2015-Apr-17 16:33N 40°55' E 009°31'0 0.0
2015-Apr-17 15:33N 40°55' E 009°31'0 0.0
2015-Apr-17 14:32N 40°55' E 009°31'0 0.0
2015-Apr-17 13:32N 40°55' E 009°31'0 0.0
2015-Apr-17 12:26N 40°55' E 009°31'0 0.0
2015-Apr-17 11:26N 40°55' E 009°31'0 0.0
2015-Apr-17 10:22N 40°55' E 009°31'0 0.0
2015-Apr-17 09:31N 40°55' E 009°31'0 0.0
2015-Apr-17 08:31N 40°55' E 009°31'0 0.0
2015-Apr-17 07:28N 40°55' E 009°31'0 0.0
2015-Apr-17 06:24N 40°55' E 009°31'0 0.0
2015-Apr-17 05:24N 40°55' E 009°31'10316.9
2015-Apr-16 23:17N 42°37' E 009°58'1419.7
2015-Apr-16 22:33N 42°51' E 010°01'2019.6
2015-Apr-16 21:33N 43°10' E 010°06'1919.2
2015-Apr-16 20:33N 43°29' E 010°12'6 5.8
2015-Apr-16 19:31N 43°33' E 010°18'0 0.0
2015-Apr-16 18:31N 43°33' E 010°18'0 0.0
2015-Apr-16 17:31N 43°33' E 010°18'0 0.0
2015-Apr-16 16:31N 43°33' E 010°18'0 0.0
2015-Apr-16 15:31N 43°33' E 010°18'0 0.0
2015-Apr-16 14:31N 43°33' E 010°18'0 0.0
2015-Apr-16 13:33N 43°33' E 010°18'0 0.0
2015-Apr-16 12:33N 43°33' E 010°18'0 0.0
2015-Apr-16 11:33N 43°33' E 010°18'0 0.0
2015-Apr-16 10:30N 43°33' E 010°18'0 0.0
2015-Apr-16 09:30N 43°33' E 010°18'0 0.0
2015-Apr-16 08:30N 43°33' E 010°18'0 0.0
2015-Apr-16 07:33N 43°33' E 010°18'0 0.0
2015-Apr-16 06:33N 43°33' E 010°18'0 0.0
2015-Apr-16 05:33N 43°33' E 010°18'4 4.2
2015-Apr-16 04:33N 43°30' E 010°15'2020.1
2015-Apr-16 03:33N 43°11' E 010°05'2020.1
2015-Apr-16 02:34N 42°51' E 009°59'2019.9
2015-Apr-16 01:34N 42°32' E 009°54'2019.5
2015-Apr-16 00:31N 42°12' E 009°51'1919.6
2015-Apr-15 23:32N 41°52' E 009°50'2119.8
2015-Apr-15 22:30N 41°32' E 009°47'1819.4
2015-Apr-15 21:33N 41°14' E 009°44'1817.9
2015-Apr-15 20:33N 40°56' E 009°38'5 4.9
2015-Apr-15 19:31N 40°55' E 009°31'0 0.0
2015-Apr-15 09:24N 40°55' E 009°31'0 0.0
2015-Apr-15 08:32N 40°55' E 009°31'0 0.0
2015-Apr-15 07:32N 40°55' E 009°31'0 0.0
2015-Apr-15 05:33N 40°55' E 009°31'12016.8
2015-Apr-14 22:24N 42°54' E 010°01'1618.7
2015-Apr-14 21:33N 43°09' E 010°05'2019.5
2015-Apr-14 20:33N 43°28' E 010°12'7 6.7
2015-Apr-14 19:33N 43°33' E 010°18'0 0.0
2015-Apr-14 18:33N 43°33' E 010°18'0 0.0
2015-Apr-14 17:30N 43°33' E 010°18'0 0.0
2015-Apr-14 16:32N 43°33' E 010°18'0 0.0
2015-Apr-14 15:26N 43°33' E 010°18'0 0.0
2015-Apr-14 14:32N 43°33' E 010°18'0 0.0
2015-Apr-14 13:32N 43°33' E 010°18'0 0.0
2015-Apr-14 12:32N 43°33' E 010°18'0 0.0
2015-Apr-14 11:31N 43°33' E 010°18'0 0.0
2015-Apr-14 10:32N 43°33' E 010°18'0 0.0
2015-Apr-14 09:32N 43°33' E 010°18'0 0.0
2015-Apr-14 08:32N 43°33' E 010°18'0 0.0
2015-Apr-14 07:31N 43°33' E 010°18'16114.3
2015-Apr-13 20:16N 40°55' E 009°33'1 1.5
2015-Apr-13 19:30N 40°55' E 009°31'0 0.0
2015-Apr-13 18:33N 40°55' E 009°31'0 0.0
2015-Apr-13 17:34N 40°55' E 009°31'0 0.0
2015-Apr-13 16:34N 40°55' E 009°31'0 0.0
2015-Apr-13 15:25N 40°55' E 009°31'0 0.0
2015-Apr-13 14:28N 40°55' E 009°31'0 0.0
2015-Apr-13 13:33N 40°55' E 009°31'0 0.0
2015-Apr-13 12:33N 40°55' E 009°31'0 0.0
2015-Apr-13 11:24N 40°55' E 009°31'0 0.0
2015-Apr-13 10:31N 40°55' E 009°31'0 0.0
2015-Apr-13 09:32N 40°55' E 009°31'0 0.0
2015-Apr-13 08:24N 40°55' E 009°31'0 0.0
2015-Apr-13 07:24N 40°55' E 009°31'0 0.0
2015-Apr-13 06:30N 40°55' E 009°31'0 0.0
2015-Apr-13 05:22N 40°55' E 009°31'141 5.5
2015-Apr-12 03:34N 43°14' E 010°07'14119.3
2015-Apr-11 20:14N 40°55' E 009°33'1 1.6
2015-Apr-11 19:22N 40°55' E 009°31'0 0.0
2015-Apr-11 18:31N 40°55' E 009°31'0 0.0
2015-Apr-11 17:33N 40°55' E 009°31'0 0.0
2015-Apr-11 16:30N 40°55' E 009°31'0 0.0
2015-Apr-11 15:30N 40°55' E 009°31'0 0.0
2015-Apr-11 14:27N 40°55' E 009°31'0 0.0
2015-Apr-11 13:33N 40°55' E 009°31'0 0.0
2015-Apr-11 12:24N 40°55' E 009°31'0 0.0
2015-Apr-11 11:32N 40°55' E 009°31'0 0.0
2015-Apr-11 10:23N 40°55' E 009°31'0 0.0
2015-Apr-11 09:32N 40°55' E 009°31'0 0.0
2015-Apr-11 08:29N 40°55' E 009°31'0 0.0
2015-Apr-11 07:32N 40°55' E 009°31'0 0.0
2015-Apr-11 06:32N 40°55' E 009°31'0 0.0
2015-Apr-11 05:32N 40°55' E 009°31'10116.8
2015-Apr-10 23:29N 42°35' E 009°58'2419.4
2015-Apr-10 22:16N 42°58' E 010°03'1419.2
2015-Apr-10 21:33N 43°11' E 010°07'1919.4
2015-Apr-10 20:34N 43°30' E 010°13'5 4.5
2015-Apr-10 19:31N 43°33' E 010°18'0 0.0
2015-Apr-10 18:31N 43°33' E 010°18'0 0.0
2015-Apr-10 17:28N 43°33' E 010°18'0 0.0
2015-Apr-10 16:28N 43°33' E 010°18'0 0.0
2015-Apr-10 15:31N 43°33' E 010°18'0 0.0
2015-Apr-10 14:31N 43°33' E 010°18'0 0.0
2015-Apr-10 13:33N 43°33' E 010°18'0 0.0
2015-Apr-10 12:33N 43°33' E 010°18'0 0.0
2015-Apr-10 09:33N 43°33' E 010°18'0 0.0
2015-Apr-10 08:33N 43°33' E 010°18'0 0.0
2015-Apr-10 07:32N 43°33' E 010°18'0 0.0
2015-Apr-10 06:32N 43°33' E 010°18'0 0.0
2015-Apr-10 05:32N 43°33' E 010°18'5 4.8
2015-Apr-10 04:33N 43°30' E 010°14'2019.8
2015-Apr-10 03:33N 43°10' E 010°08'2020.0
2015-Apr-10 02:33N 42°51' E 010°01'1919.3
2015-Apr-10 01:33N 42°32' E 009°56'1919.3
2015-Apr-10 00:33N 42°13' E 009°52'2019.9
2015-Apr-09 23:33N 41°53' E 009°51'5917.8
2015-Apr-09 20:14N 40°55' E 009°33'1 2.0
2015-Apr-09 19:32N 40°55' E 009°31'0 0.0
2015-Apr-09 18:32N 40°55' E 009°31'0 0.0
2015-Apr-09 17:29N 40°55' E 009°31'0 0.0
2015-Apr-09 16:29N 40°55' E 009°31'0 0.0
2015-Apr-09 15:26N 40°55' E 009°31'  
Track history (hours):
 
Tides and Currents Weather Stations Pressure Air Temp Water Temp Dewpoint Dewpoint Depression Visibility Wind Speed Wind Dir Waves Ship Positions

Moby Aki

Last reported at 2015-Apr-19 15:24 UTC. Time now 2015-Apr-19 15:44 UTC.
Position N 40°55' E 009°31'.

Length 175 m; draft 6.9 m.

Type: Passenger vessel. MMSI: 247132400.

Date/timePositionNaut miles runAvg speedWind from/ knotsBaromVisibWave heightAir tempDewpointWater temp
2015-Apr-19 15:24N 40°55' E 009°31'0 0.0
2015-Apr-19 14:23N 40°55' E 009°31'0 0.0
2015-Apr-19 13:32N 40°55' E 009°31'0 0.0
2015-Apr-19 12:29N 40°55' E 009°31'0 0.0
2015-Apr-19 11:29N 40°55' E 009°31'0 0.0
2015-Apr-19 10:29N 40°55' E 009°31'0 0.0
2015-Apr-19 09:25N 40°55' E 009°31'0 0.0
2015-Apr-19 08:22N 40°55' E 009°31'0 0.0
2015-Apr-19 07:19N 40°55' E 009°31'0 0.0
2015-Apr-19 06:31N 40°55' E 009°31'0 0.0
2015-Apr-19 05:31N 40°55' E 009°31'12817.2
2015-Apr-18 22:06N 43°01' E 010°03'1019.4
2015-Apr-18 21:33N 43°11' E 010°06'1919.3
2015-Apr-18 20:33N 43°30' E 010°12'5 5.2
2015-Apr-18 19:33N 43°33' E 010°18'0 0.0
2015-Apr-18 18:33N 43°33' E 010°18'0 0.0
2015-Apr-18 17:32N 43°33' E 010°18'0 0.0
2015-Apr-18 16:33N 43°33' E 010°18'0 0.0
2015-Apr-18 15:30N 43°33' E 010°18'0 0.0
2015-Apr-18 14:33N 43°33' E 010°18'0 0.0
2015-Apr-18 13:33N 43°33' E 010°18'0 0.0
2015-Apr-18 12:33N 43°33' E 010°18'0 0.0
2015-Apr-18 11:33N 43°33' E 010°18'0 0.0
2015-Apr-18 10:33N 43°33' E 010°18'0 0.0
2015-Apr-18 09:33N 43°33' E 010°18'0 0.0
2015-Apr-18 08:33N 43°33' E 010°18'0 0.0
2015-Apr-18 07:33N 43°33' E 010°18'0 0.0
2015-Apr-18 06:32N 43°33' E 010°18'0 0.0
2015-Apr-18 05:32N 43°33' E 010°18'5 4.7
2015-Apr-18 04:33N 43°30' E 010°14'1918.7
2015-Apr-18 03:33N 43°11' E 010°07'13819.4
2015-Apr-17 20:27N 40°56' E 009°36'3 3.4
2015-Apr-17 19:32N 40°55' E 009°31'0 0.0
2015-Apr-17 18:23N 40°55' E 009°31'0 0.0
2015-Apr-17 17:32N 40°55' E 009°31'0 0.0
2015-Apr-17 16:33N 40°55' E 009°31'0 0.0
2015-Apr-17 15:33N 40°55' E 009°31'0 0.0
2015-Apr-17 14:32N 40°55' E 009°31'0 0.0
2015-Apr-17 13:32N 40°55' E 009°31'0 0.0
2015-Apr-17 12:26N 40°55' E 009°31'0 0.0
2015-Apr-17 11:26N 40°55' E 009°31'0 0.0
2015-Apr-17 10:22N 40°55' E 009°31'0 0.0
2015-Apr-17 09:31N 40°55' E 009°31'0 0.0
2015-Apr-17 08:31N 40°55' E 009°31'0 0.0
2015-Apr-17 07:28N 40°55' E 009°31'0 0.0
2015-Apr-17 06:24N 40°55' E 009°31'0 0.0
2015-Apr-17 05:24N 40°55' E 009°31'10316.9
2015-Apr-16 23:17N 42°37' E 009°58'1419.7
2015-Apr-16 22:33N 42°51' E 010°01'2019.6
2015-Apr-16 21:33N 43°10' E 010°06'1919.2
2015-Apr-16 20:33N 43°29' E 010°12'6 5.8
2015-Apr-16 19:31N 43°33' E 010°18'0 0.0
2015-Apr-16 18:31N 43°33' E 010°18'0 0.0
2015-Apr-16 17:31N 43°33' E 010°18'0 0.0
2015-Apr-16 16:31N 43°33' E 010°18'0 0.0
2015-Apr-16 15:31N 43°33' E 010°18'0 0.0
2015-Apr-16 14:31N 43°33' E 010°18'0 0.0
2015-Apr-16 13:33N 43°33' E 010°18'0 0.0
2015-Apr-16 12:33N 43°33' E 010°18'0 0.0
2015-Apr-16 11:33N 43°33' E 010°18'0 0.0
2015-Apr-16 10:30N 43°33' E 010°18'0 0.0
2015-Apr-16 09:30N 43°33' E 010°18'0 0.0
2015-Apr-16 08:30N 43°33' E 010°18'0 0.0
2015-Apr-16 07:33N 43°33' E 010°18'0 0.0
2015-Apr-16 06:33N 43°33' E 010°18'0 0.0
2015-Apr-16 05:33N 43°33' E 010°18'4 4.2
2015-Apr-16 04:33N 43°30' E 010°15'2020.1
2015-Apr-16 03:33N 43°11' E 010°05'2020.1
2015-Apr-16 02:34N 42°51' E 009°59'2019.9
2015-Apr-16 01:34N 42°32' E 009°54'2019.5
2015-Apr-16 00:31N 42°12' E 009°51'1919.6
2015-Apr-15 23:32N 41°52' E 009°50'2119.8
2015-Apr-15 22:30N 41°32' E 009°47'1819.4
2015-Apr-15 21:33N 41°14' E 009°44'1817.9
2015-Apr-15 20:33N 40°56' E 009°38'5 4.9
2015-Apr-15 19:31N 40°55' E 009°31'0 0.0
2015-Apr-15 09:24N 40°55' E 009°31'0 0.0
2015-Apr-15 08:32N 40°55' E 009°31'0 0.0
2015-Apr-15 07:32N 40°55' E 009°31'0 0.0
2015-Apr-15 05:33N 40°55' E 009°31'12016.8
2015-Apr-14 22:24N 42°54' E 010°01'1618.7
2015-Apr-14 21:33N 43°09' E 010°05'2019.5
2015-Apr-14 20:33N 43°28' E 010°12'7 6.7
2015-Apr-14 19:33N 43°33' E 010°18'0 0.0
2015-Apr-14 18:33N 43°33' E 010°18'0 0.0
2015-Apr-14 17:30N 43°33' E 010°18'0 0.0
2015-Apr-14 16:32N 43°33' E 010°18'0 0.0
2015-Apr-14 15:26N 43°33' E 010°18'0 0.0
2015-Apr-14 14:32N 43°33' E 010°18'0 0.0
2015-Apr-14 13:32N 43°33' E 010°18'0 0.0
2015-Apr-14 12:32N 43°33' E 010°18'0 0.0
2015-Apr-14 11:31N 43°33' E 010°18'0 0.0
2015-Apr-14 10:32N 43°33' E 010°18'0 0.0
2015-Apr-14 09:32N 43°33' E 010°18'0 0.0
2015-Apr-14 08:32N 43°33' E 010°18'0 0.0
2015-Apr-14 07:31N 43°33' E 010°18'16114.3
2015-Apr-13 20:16N 40°55' E 009°33'1 1.5
2015-Apr-13 19:30N 40°55' E 009°31'0 0.0
2015-Apr-13 18:33N 40°55' E 009°31'0 0.0
2015-Apr-13 17:34N 40°55' E 009°31'0 0.0
2015-Apr-13 16:34N 40°55' E 009°31'0 0.0
2015-Apr-13 15:25N 40°55' E 009°31'0 0.0
2015-Apr-13 14:28N 40°55' E 009°31'0 0.0
2015-Apr-13 13:33N 40°55' E 009°31'0 0.0
2015-Apr-13 12:33N 40°55' E 009°31'0 0.0
2015-Apr-13 11:24N 40°55' E 009°31'0 0.0
2015-Apr-13 10:31N 40°55' E 009°31'0 0.0
2015-Apr-13 09:32N 40°55' E 009°31'0 0.0
2015-Apr-13 08:24N 40°55' E 009°31'0 0.0
2015-Apr-13 07:24N 40°55' E 009°31'0 0.0
2015-Apr-13 06:30N 40°55' E 009°31'0 0.0
2015-Apr-13 05:22N 40°55' E 009°31'141 5.5
2015-Apr-12 03:34N 43°14' E 010°07'14119.3
2015-Apr-11 20:14N 40°55' E 009°33'1 1.6
2015-Apr-11 19:22N 40°55' E 009°31'0 0.0
2015-Apr-11 18:31N 40°55' E 009°31'0 0.0
2015-Apr-11 17:33N 40°55' E 009°31'0 0.0
2015-Apr-11 16:30N 40°55' E 009°31'0 0.0
2015-Apr-11 15:30N 40°55' E 009°31'0 0.0
2015-Apr-11 14:27N 40°55' E 009°31'0 0.0
2015-Apr-11 13:33N 40°55' E 009°31'0 0.0
2015-Apr-11 12:24N 40°55' E 009°31'0 0.0
2015-Apr-11 11:32N 40°55' E 009°31'0 0.0
2015-Apr-11 10:23N 40°55' E 009°31'0 0.0
2015-Apr-11 09:32N 40°55' E 009°31'0 0.0
2015-Apr-11 08:29N 40°55' E 009°31'0 0.0
2015-Apr-11 07:32N 40°55' E 009°31'0 0.0
2015-Apr-11 06:32N 40°55' E 009°31'0 0.0
2015-Apr-11 05:32N 40°55' E 009°31'10116.8
2015-Apr-10 23:29N 42°35' E 009°58'2419.4
2015-Apr-10 22:16N 42°58' E 010°03'1419.2
2015-Apr-10 21:33N 43°11' E 010°07'1919.4
2015-Apr-10 20:34N 43°30' E 010°13'5 4.5
2015-Apr-10 19:31N 43°33' E 010°18'0 0.0
2015-Apr-10 18:31N 43°33' E 010°18'0 0.0
2015-Apr-10 17:28N 43°33' E 010°18'0 0.0
2015-Apr-10 16:28N 43°33' E 010°18'0 0.0
2015-Apr-10 15:31N 43°33' E 010°18'0 0.0
2015-Apr-10 14:31N 43°33' E 010°18'0 0.0
2015-Apr-10 13:33N 43°33' E 010°18'0 0.0
2015-Apr-10 12:33N 43°33' E 010°18'0 0.0
2015-Apr-10 09:33N 43°33' E 010°18'0 0.0
2015-Apr-10 08:33N 43°33' E 010°18'0 0.0
2015-Apr-10 07:32N 43°33' E 010°18'0 0.0
2015-Apr-10 06:32N 43°33' E 010°18'0 0.0
2015-Apr-10 05:32N 43°33' E 010°18'5 4.8
2015-Apr-10 04:33N 43°30' E 010°14'2019.8
2015-Apr-10 03:33N 43°10' E 010°08'2020.0
2015-Apr-10 02:33N 42°51' E 010°01'1919.3
2015-Apr-10 01:33N 42°32' E 009°56'1919.3
2015-Apr-10 00:33N 42°13' E 009°52'2019.9
2015-Apr-09 23:33N 41°53' E 009°51'5917.8
2015-Apr-09 20:14N 40°55' E 009°33'1 2.0
2015-Apr-09 19:32N 40°55' E 009°31'0 0.0
2015-Apr-09 18:32N 40°55' E 009°31'0 0.0
2015-Apr-09 17:29N 40°55' E 009°31'0 0.0
2015-Apr-09 16:29N 40°55' E 009°31'0 0.0
2015-Apr-09 15:26N 40°55' E 009°31'  

Dump ship's entire track history